Time;durP1;ratioP1;P1;durP2;ratioP2;P2;SDS_P1;SDS_P2;PMS_P1;PMS_P2;Temp;Humidity;BMP_temperature;BMP_pressure;BME280_temperature;BME280_humidity;BME280_pressure;Samples;Min_cycle;Max_cycle;Signal;HPM_P1;HPM_P2
2021/12/05 00:22:29;;;;;;;36.73;13.83;;;4.80;99.90;;;;;;5129858;28;20214;-78
2021/12/05 00:25:00;;;;;;;30.87;13.83;;;4.80;99.90;;;;;;5127492;28;20203;-79
2021/12/05 00:27:35;;;;;;;32.23;14.73;;;4.80;99.90;;;;;;5087105;28;20211;-79
2021/12/05 00:36:19;;;;;;;29.87;13.60;;;4.80;99.90;;;;;;5122725;28;20202;-79
2021/12/05 00:52:18;;;;;;;22.53;11.33;;;4.80;99.90;;;;;;5127047;28;20201;-79
2021/12/05 00:57:36;;;;;;;22.67;11.17;;;4.80;99.90;;;;;;5098136;28;20216;-80
2021/12/05 01:11:13;;;;;;;21.80;10.70;;;4.60;99.90;;;;;;5094845;28;20202;-79
2021/12/05 01:14:00;;;;;;;22.63;9.13;;;4.60;99.90;;;;;;5073736;28;20296;-79
2021/12/05 01:16:28;;;;;;;20.00;9.27;;;4.60;99.90;;;;;;5091650;28;20519;-80
2021/12/05 01:18:56;;;;;;;18.27;8.57;;;4.60;99.90;;;;;;5101977;28;20225;-80
2021/12/05 01:21:24;;;;;;;26.90;9.10;;;4.60;99.90;;;;;;5111191;28;20281;-79
2021/12/05 01:24:13;;;;;;;19.87;8.57;;;4.60;99.90;;;;;;5075152;28;20263;-79
2021/12/05 01:34:40;;;;;;;18.27;7.60;;;4.60;99.90;;;;;;5096500;28;20679;-80
2021/12/05 01:39:48;;;;;;;24.43;6.50;;;4.50;99.90;;;;;;5089788;28;20231;-79
2021/12/05 01:50:43;;;;;;;15.77;7.47;;;4.40;99.90;;;;;;5101084;28;20318;-79
2021/12/05 02:35:02;;;;;;;20.93;5.47;;;3.60;99.90;;;;;;5083894;28;20224;-79
2021/12/05 02:41:06;;;;;;;14.23;5.03;;;3.60;99.90;;;;;;5099449;28;20224;-79
2021/12/05 02:43:13;;;;;;;16.27;5.50;;;3.60;99.90;;;;;;5092907;28;20209;-79
2021/12/05 02:45:46;;;;;;;16.23;5.67;;;3.50;99.90;;;;;;5092003;28;20309;-80
2021/12/05 02:48:15;;;;;;;19.60;5.23;;;3.60;99.90;;;;;;5094990;28;20233;-79
2021/12/05 02:50:43;;;;;;;21.63;5.40;;;3.50;99.90;;;;;;5092975;28;20281;-79
2021/12/05 02:53:20;;;;;;;18.20;4.67;;;3.50;99.90;;;;;;5090119;28;20218;-80
2021/12/05 02:55:50;;;;;;;16.83;5.00;;;3.50;99.90;;;;;;5082324;28;20210;-78
2021/12/05 03:01:13;;;;;;;16.20;4.80;;;3.50;99.90;;;;;;5088968;28;20227;-80
2021/12/05 03:03:41;;;;;;;16.00;4.90;;;3.50;99.90;;;;;;5092744;28;20310;-78
2021/12/05 03:06:23;;;;;;;17.87;5.30;;;3.50;99.90;;;;;;5099301;28;20644;-79
2021/12/05 03:08:57;;;;;;;12.90;5.07;;;3.50;99.90;;;;;;5088912;28;20268;-80
2021/12/05 03:11:25;;;;;;;10.60;4.70;;;3.60;99.90;;;;;;5106179;28;20236;-79
2021/12/05 03:13:54;;;;;;;14.93;5.53;;;3.60;99.90;;;;;;5092681;28;20297;-80
2021/12/05 03:16:23;;;;;;;19.00;4.83;;;3.60;99.90;;;;;;5110850;28;20731;-80
2021/12/05 03:18:50;;;;;;;12.07;4.30;;;3.60;99.90;;;;;;5105288;28;20222;-80
2021/12/05 03:21:18;;;;;;;21.33;4.90;;;3.70;99.90;;;;;;5106871;28;20229;-78
2021/12/05 03:23:47;;;;;;;14.17;4.37;;;3.70;99.90;;;;;;5085344;28;20202;-78
2021/12/05 03:26:18;;;;;;;22.47;5.93;;;3.70;99.90;;;;;;5106177;28;20212;-78
2021/12/05 03:28:46;;;;;;;15.87;4.50;;;3.70;99.90;;;;;;5114281;28;20209;-78
2021/12/05 03:31:12;;;;;;;18.13;5.03;;;3.80;99.90;;;;;;5076164;28;20663;-78
2021/12/05 03:33:39;;;;;;;12.30;5.07;;;3.70;99.90;;;;;;5098655;28;20218;-79
2021/12/05 03:36:09;;;;;;;14.97;4.40;;;3.80;99.90;;;;;;5115043;28;20754;-79
2021/12/05 03:38:38;;;;;;;26.50;6.10;;;3.70;99.90;;;;;;5106345;28;20312;-78
2021/12/05 03:41:05;;;;;;;16.37;4.93;;;3.80;99.90;;;;;;5108929;28;20288;-79
2021/12/05 03:43:36;;;;;;;14.97;4.83;;;3.80;99.90;;;;;;5086108;28;20223;-78
2021/12/05 03:46:06;;;;;;;13.63;4.73;;;3.80;99.90;;;;;;5111741;28;20665;-79
2021/12/05 03:48:42;;;;;;;14.63;5.00;;;3.80;99.90;;;;;;5092206;28;20574;-79
2021/12/05 03:51:11;;;;;;;22.73;5.60;;;3.80;99.90;;;;;;5089154;28;20210;-79
2021/12/05 03:53:39;;;;;;;17.60;5.97;;;3.90;99.90;;;;;;5064482;28;20206;-79
2021/12/05 03:56:08;;;;;;;16.37;4.73;;;3.80;99.90;;;;;;5093399;28;20214;-79
2021/12/05 03:58:39;;;;;;;15.77;4.70;;;3.80;99.90;;;;;;5102773;28;20697;-77
2021/12/05 04:01:08;;;;;;;13.57;4.73;;;3.80;99.90;;;;;;5112392;28;20230;-79
2021/12/05 04:03:37;;;;;;;16.87;5.03;;;3.80;99.90;;;;;;5111324;28;20228;-80
2021/12/05 04:06:06;;;;;;;18.67;5.53;;;3.80;99.90;;;;;;5111584;28;20669;-80
2021/12/05 04:08:34;;;;;;;13.53;4.97;;;3.80;99.90;;;;;;5111789;28;20302;-79
2021/12/05 04:11:06;;;;;;;16.43;5.50;;;3.80;99.90;;;;;;5101426;28;20301;-79
2021/12/05 04:13:33;;;;;;;23.30;4.90;;;3.90;99.90;;;;;;5091579;28;20270;-81
2021/12/05 04:16:03;;;;;;;21.27;5.53;;;3.90;99.90;;;;;;5094091;28;20220;-79
2021/12/05 04:18:30;;;;;;;20.30;4.67;;;3.90;99.90;;;;;;5111181;28;20230;-79
2021/12/05 04:21:06;;;;;;;23.63;4.80;;;3.90;99.90;;;;;;5115372;28;20254;-79
2021/12/05 04:23:34;;;;;;;15.73;5.20;;;3.90;99.90;;;;;;5093949;28;20230;-78
2021/12/05 04:26:01;;;;;;;19.90;5.10;;;3.90;99.90;;;;;;5097965;28;20211;-79
2021/12/05 04:28:28;;;;;;;14.27;5.37;;;3.90;99.90;;;;;;5089342;28;20434;-78
2021/12/05 04:30:57;;;;;;;20.23;5.70;;;3.90;99.90;;;;;;5090884;28;20710;-79
2021/12/05 04:33:26;;;;;;;28.63;6.20;;;4.00;99.90;;;;;;5091868;28;20219;-79
2021/12/05 04:35:53;;;;;;;17.13;5.90;;;3.90;99.90;;;;;;5090523;28;20416;-79
2021/12/05 04:38:20;;;;;;;15.23;5.67;;;4.00;99.90;;;;;;5097906;28;20205;-80
2021/12/05 04:40:49;;;;;;;25.30;6.40;;;3.90;99.90;;;;;;5095818;28;20597;-79
2021/12/05 04:43:16;;;;;;;19.60;6.43;;;3.90;99.90;;;;;;5091366;28;20352;-78
2021/12/05 04:45:43;;;;;;;17.67;6.23;;;3.90;99.90;;;;;;5091288;28;20252;-79
2021/12/05 04:48:10;;;;;;;15.23;6.00;;;3.90;99.90;;;;;;5092296;28;20730;-80
2021/12/05 04:50:38;;;;;;;21.00;7.37;;;3.90;99.90;;;;;;5084247;28;20353;-79
2021/12/05 04:53:07;;;;;;;25.27;7.37;;;3.90;99.90;;;;;;5070491;28;20768;-80
2021/12/05 04:55:35;;;;;;;21.20;7.47;;;3.90;99.90;;;;;;5055648;28;20645;-79
2021/12/05 04:58:06;;;;;;;21.37;7.63;;;3.80;99.90;;;;;;5090874;28;20261;-80
2021/12/05 05:00:40;;;;;;;19.63;7.27;;;3.80;99.90;;;;;;5076715;28;20310;-78
2021/12/05 05:03:09;;;;;;;19.83;7.37;;;3.80;99.90;;;;;;5070282;28;20270;-79
2021/12/05 05:05:39;;;;;;;19.60;8.43;;;3.80;99.90;;;;;;5064596;28;20638;-79
2021/12/05 05:08:06;;;;;;;26.47;8.57;;;3.90;99.90;;;;;;5082827;28;20319;-80
2021/12/05 05:10:34;;;;;;;18.50;7.27;;;3.90;99.90;;;;;;5076077;28;20204;-79
2021/12/05 05:13:01;;;;;;;21.67;8.03;;;3.90;99.90;;;;;;5070436;28;20204;-80
2021/12/05 05:15:31;;;;;;;23.73;7.33;;;3.90;99.90;;;;;;5090854;28;20222;-78
2021/12/05 05:18:00;;;;;;;26.10;8.93;;;4.00;99.90;;;;;;5090227;28;20713;-79
2021/12/05 05:20:36;;;;;;;18.73;8.33;;;3.90;99.90;;;;;;5076496;28;20690;-80
2021/12/05 05:28:50;;;;;;;16.00;7.97;;;4.00;99.90;;;;;;5076430;28;20635;-79
2021/12/05 05:44:56;;;;;;;24.90;9.37;;;4.30;99.90;;;;;;5069296;28;20196;-78
2021/12/05 05:47:31;;;;;;;18.27;8.23;;;4.30;99.90;;;;;;5083101;28;20228;-79
2021/12/05 05:49:59;;;;;;;24.10;8.27;;;4.30;99.90;;;;;;5077910;28;20238;-78
2021/12/05 05:52:30;;;;;;;24.10;9.63;;;4.30;99.90;;;;;;5080175;28;20311;-79
2021/12/05 05:55:00;;;;;;;18.47;8.60;;;4.40;99.90;;;;;;5078627;28;20303;-79
2021/12/05 05:57:56;;;;;;;22.47;9.43;;;4.40;99.90;;;;;;5059115;28;20202;-79
2021/12/05 06:00:35;;;;;;;23.80;8.57;;;4.50;99.90;;;;;;5062292;28;20287;-79
2021/12/05 06:03:23;;;;;;;20.10;8.73;;;4.50;99.90;;;;;;5050794;28;20225;-80
2021/12/05 06:05:53;;;;;;;20.53;8.20;;;4.50;99.90;;;;;;5069320;28;20241;-79
2021/12/05 06:08:23;;;;;;;16.37;8.20;;;4.50;99.90;;;;;;5069179;28;20222;-79
2021/12/05 06:10:51;;;;;;;22.07;8.87;;;4.50;99.90;;;;;;5063425;28;20239;-79
2021/12/05 06:13:25;;;;;;;20.77;8.77;;;4.50;99.90;;;;;;5070124;28;20302;-79
2021/12/05 06:15:55;;;;;;;18.00;8.50;;;4.70;99.90;;;;;;5088891;28;20267;-79
2021/12/05 06:18:23;;;;;;;21.47;8.60;;;4.60;99.90;;;;;;5078278;28;20302;-79
2021/12/05 06:20:51;;;;;;;15.23;7.73;;;4.60;99.90;;;;;;5061932;28;20221;-79
2021/12/05 06:23:18;;;;;;;26.93;8.70;;;4.70;99.90;;;;;;5081547;28;20206;-79
2021/12/05 06:25:50;;;;;;;17.83;8.63;;;4.70;99.90;;;;;;5053087;28;20192;-79
2021/12/05 06:28:27;;;;;;;17.97;7.90;;;4.70;99.90;;;;;;5078634;28;20287;-79
2021/12/05 06:31:20;;;;;;;20.83;8.60;;;4.70;99.90;;;;;;5070086;28;20356;-78
2021/12/05 06:37:10;;;;;;;21.00;9.00;;;4.70;99.90;;;;;;5069807;28;20209;-78
2021/12/05 06:47:41;;;;;;;19.07;8.90;;;4.80;99.90;;;;;;5092089;28;20220;-79
2021/12/05 06:50:08;;;;;;;25.10;9.80;;;4.80;99.90;;;;;;5073614;28;20264;-79
2021/12/05 06:52:42;;;;;;;18.90;9.17;;;4.80;99.90;;;;;;5071103;28;20412;-78
2021/12/05 06:55:11;;;;;;;23.90;10.47;;;4.80;99.90;;;;;;5067631;28;20267;-80
2021/12/05 06:57:38;;;;;;;23.63;9.57;;;4.80;99.90;;;;;;5072670;28;20228;-80
2021/12/05 07:00:10;;;;;;;14.50;8.30;;;4.80;99.90;;;;;;5066158;28;20788;-79
2021/12/05 07:02:37;;;;;;;15.40;7.57;;;4.80;99.90;;;;;;5079287;28;20311;-80
2021/12/05 07:07:39;;;;;;;15.10;7.93;;;4.80;99.90;;;;;;5074963;28;20556;-81
2021/12/05 07:10:07;;;;;;;18.13;7.83;;;4.80;99.90;;;;;;5078762;28;20240;-79
2021/12/05 07:15:47;;;;;;;18.93;8.67;;;4.90;99.90;;;;;;5075431;28;20205;-80
2021/12/05 07:26:19;;;;;;;15.40;7.53;;;4.90;99.90;;;;;;5084396;28;20214;-80
2021/12/05 07:42:40;;;;;;;13.60;7.23;;;4.90;99.90;;;;;;5078026;28;20776;-79
2021/12/05 07:45:16;;;;;;;11.80;7.03;;;5.00;99.90;;;;;;5078757;28;20635;-79
2021/12/05 07:47:46;;;;;;;15.50;6.97;;;5.00;99.90;;;;;;5066573;28;20255;-79
2021/12/05 07:50:14;;;;;;;16.77;6.40;;;4.90;99.90;;;;;;5071255;28;20256;-78
2021/12/05 07:52:45;;;;;;;13.77;7.70;;;4.90;99.90;;;;;;5054286;28;20287;-79
2021/12/05 07:58:03;;;;;;;17.90;6.87;;;5.00;99.90;;;;;;5084715;28;20257;-79
2021/12/05 08:14:52;;;;;;;18.57;7.20;;;5.00;99.90;;;;;;5070925;28;20239;-79
2021/12/05 08:17:20;;;;;;;14.47;7.50;;;5.00;99.90;;;;;;5076147;28;20255;-79
2021/12/05 08:19:47;;;;;;;15.43;8.47;;;5.00;99.90;;;;;;5079414;28;20214;-80
2021/12/05 08:22:15;;;;;;;15.80;7.80;;;5.00;99.90;;;;;;5084510;28;20619;-80
2021/12/05 08:24:46;;;;;;;17.73;8.20;;;5.00;99.90;;;;;;5070602;28;20250;-79
2021/12/05 08:27:15;;;;;;;17.47;8.20;;;5.10;99.90;;;;;;5070839;28;20264;-80
2021/12/05 08:29:50;;;;;;;14.73;7.93;;;5.10;99.90;;;;;;5070507;28;20200;-80
2021/12/05 08:32:28;;;;;;;20.30;8.27;;;5.10;99.90;;;;;;5069785;28;20312;-80
2021/12/05 08:35:10;;;;;;;14.90;7.80;;;5.10;99.90;;;;;;5052391;28;20691;-80
2021/12/05 09:21:56;;;;;;;17.77;8.57;;;5.40;99.90;;;;;;5072397;28;20257;-79
2021/12/05 09:30:04;;;;;;;16.43;8.17;;;5.40;99.90;;;;;;5068051;28;20685;-80
2021/12/05 10:03:02;;;;;;;12.83;7.90;;;6.00;99.90;;;;;;5065005;28;20317;-79
2021/12/05 10:13:59;;;;;;;10.53;7.03;;;6.40;99.90;;;;;;5068106;28;20883;-79
2021/12/05 10:16:54;;;;;;;13.40;8.00;;;6.30;99.90;;;;;;5069801;28;20217;-79
2021/12/05 10:37:17;;;;;;;13.83;7.87;;;6.30;99.90;;;;;;5071916;28;20248;-80
2021/12/05 10:39:45;;;;;;;12.27;7.17;;;6.30;99.90;;;;;;5070756;28;20234;-80
2021/12/05 10:42:38;;;;;;;10.73;7.87;;;6.30;99.90;;;;;;5073349;28;20644;-80
2021/12/05 10:45:08;;;;;;;11.57;7.07;;;6.30;99.90;;;;;;5087408;28;20205;-80
2021/12/05 10:47:42;;;;;;;12.63;7.80;;;6.30;99.90;;;;;;5075973;28;20221;-79
2021/12/05 10:50:32;;;;;;;10.57;7.40;;;6.30;99.90;;;;;;5074560;28;20304;-80
2021/12/05 10:53:38;;;;;;;10.53;7.23;;;6.30;99.90;;;;;;5073010;28;20235;-79
2021/12/05 10:56:19;;;;;;;11.43;7.00;;;6.30;99.90;;;;;;5015952;28;20298;-79
2021/12/05 10:58:59;;;;;;;9.80;6.70;;;6.30;99.90;;;;;;5061963;28;20294;-78
2021/12/05 11:01:41;;;;;;;10.60;6.33;;;6.30;99.90;;;;;;5072455;28;20680;-79
2021/12/05 11:04:17;;;;;;;9.47;5.90;;;6.30;99.90;;;;;;5072422;28;20227;-79
2021/12/05 11:06:50;;;;;;;9.53;6.37;;;6.30;99.90;;;;;;5067129;28;20210;-79
2021/12/05 11:09:25;;;;;;;8.97;6.00;;;6.30;99.90;;;;;;5083539;28;20204;-80
2021/12/05 11:12:00;;;;;;;10.10;6.77;;;6.30;99.90;;;;;;5071154;28;20213;-78
2021/12/05 11:14:33;;;;;;;8.37;6.53;;;6.30;99.90;;;;;;5073083;28;20291;-81
2021/12/05 11:17:04;;;;;;;12.37;6.73;;;6.30;99.90;;;;;;5075228;28;20645;-80
2021/12/05 11:19:38;;;;;;;10.03;6.20;;;6.30;99.90;;;;;;5056244;28;20696;-79
2021/12/05 11:22:10;;;;;;;9.10;6.70;;;6.30;99.90;;;;;;5081281;28;20709;-79
2021/12/05 11:24:41;;;;;;;10.87;6.60;;;6.30;99.90;;;;;;5094448;28;20674;-79
2021/12/05 11:27:13;;;;;;;10.30;6.40;;;6.30;99.90;;;;;;5094437;28;20292;-80
2021/12/05 11:29:47;;;;;;;9.97;6.63;;;6.30;99.90;;;;;;5074135;28;20199;-78
2021/12/05 11:32:23;;;;;;;10.40;6.67;;;6.30;99.90;;;;;;5075039;28;20268;-78
2021/12/05 11:34:50;;;;;;;9.07;6.50;;;6.40;99.90;;;;;;5075706;28;20201;-79
2021/12/05 11:37:17;;;;;;;7.87;5.70;;;6.40;99.90;;;;;;5070686;28;20212;-79
2021/12/05 11:39:47;;;;;;;9.33;6.33;;;6.40;99.90;;;;;;5053744;28;20213;-79
2021/12/05 11:42:21;;;;;;;8.67;6.67;;;6.40;99.90;;;;;;5064897;28;20297;-79
2021/12/05 11:44:54;;;;;;;10.37;6.27;;;6.40;99.90;;;;;;5083225;28;20230;-78
2021/12/05 11:47:23;;;;;;;10.73;7.03;;;6.40;99.90;;;;;;5085868;28;20205;-79
2021/12/05 11:49:50;;;;;;;10.37;6.57;;;6.50;99.90;;;;;;5074310;28;20783;-78
2021/12/05 11:52:25;;;;;;;12.50;8.23;;;6.60;99.90;;;;;;5075421;28;20207;-80
2021/12/05 11:54:52;;;;;;;10.77;7.03;;;6.70;99.90;;;;;;5084064;28;20200;-79
2021/12/05 11:57:24;;;;;;;9.83;7.33;;;6.80;99.90;;;;;;5076796;28;20214;-80
2021/12/05 11:59:57;;;;;;;10.03;6.73;;;6.90;99.90;;;;;;5069894;28;20659;-78
2021/12/05 12:02:33;;;;;;;9.57;6.63;;;6.90;99.90;;;;;;5068817;28;20687;-81
2021/12/05 12:05:29;;;;;;;9.97;6.50;;;6.90;99.90;;;;;;5073636;28;20558;-79
2021/12/05 12:08:07;;;;;;;9.27;6.53;;;6.90;99.90;;;;;;5069098;28;20206;-80
2021/12/05 12:10:39;;;;;;;9.50;6.30;;;6.90;99.90;;;;;;5055492;28;20198;-79
2021/12/05 12:13:09;;;;;;;9.70;6.60;;;6.90;99.90;;;;;;5072345;28;20209;-79
2021/12/05 12:15:37;;;;;;;9.47;6.60;;;6.90;99.90;;;;;;5070808;28;20595;-81
2021/12/05 12:18:18;;;;;;;8.87;6.10;;;6.90;99.90;;;;;;5073784;28;20375;-80
2021/12/05 12:20:47;;;;;;;9.20;6.57;;;6.90;99.90;;;;;;5079758;28;20261;-79
2021/12/05 12:23:15;;;;;;;9.40;6.27;;;6.80;99.90;;;;;;5078725;28;20686;-79
2021/12/05 12:25:47;;;;;;;11.60;6.33;;;6.80;99.90;;;;;;5073730;28;20321;-78
2021/12/05 12:28:15;;;;;;;10.53;6.90;;;6.80;99.90;;;;;;5072410;28;20257;-80
2021/12/05 12:30:47;;;;;;;9.67;6.57;;;6.80;99.90;;;;;;5074648;28;20301;-80
2021/12/05 12:33:19;;;;;;;8.80;6.30;;;6.80;99.90;;;;;;5084674;28;20607;-80
2021/12/05 12:35:48;;;;;;;8.90;6.70;;;6.80;99.90;;;;;;5083314;28;20312;-81
2021/12/05 12:38:24;;;;;;;10.77;6.90;;;6.80;99.90;;;;;;5072280;28;20199;-81
2021/12/05 12:40:55;;;;;;;10.13;7.43;;;6.70;99.90;;;;;;5069334;28;20300;-79
2021/12/05 12:43:40;;;;;;;10.50;6.63;;;6.70;99.90;;;;;;5086451;28;20232;-80
2021/12/05 12:46:17;;;;;;;10.77;6.87;;;6.80;99.90;;;;;;5077913;28;20261;-80
2021/12/05 12:48:49;;;;;;;10.23;6.80;;;6.70;99.90;;;;;;5071208;28;20256;-79
2021/12/05 12:51:30;;;;;;;10.60;7.40;;;6.70;99.90;;;;;;5064639;28;20204;-78
2021/12/05 12:54:05;;;;;;;12.53;7.17;;;6.70;99.90;;;;;;5070614;28;20270;-79
2021/12/05 12:56:32;;;;;;;10.67;6.77;;;6.80;99.90;;;;;;5064605;28;20202;-78
2021/12/05 12:59:07;;;;;;;11.37;7.10;;;6.70;99.90;;;;;;5068054;28;20314;-79
2021/12/05 13:10:01;;;;;;;11.07;7.30;;;6.60;99.90;;;;;;5072388;28;20210;-79
2021/12/05 13:10:30;;;;;;;12.73;7.63;;;6.60;99.90;;;;;;5084216;28;20259;-78
2021/12/05 13:13:19;;;;;;;10.17;6.80;;;6.60;99.90;;;;;;5101738;27;20524;-80
2021/12/05 13:15:56;;;;;;;11.33;7.00;;;6.60;99.90;;;;;;5075162;28;20218;-78
2021/12/05 13:18:34;;;;;;;12.27;7.47;;;6.50;99.90;;;;;;5072697;28;20217;-79
2021/12/05 13:21:10;;;;;;;11.50;6.70;;;6.50;99.90;;;;;;5068834;28;20294;-80
2021/12/05 13:23:47;;;;;;;11.40;6.63;;;6.40;99.90;;;;;;5075741;28;20225;-80
2021/12/05 13:26:33;;;;;;;9.73;7.10;;;6.40;99.90;;;;;;5074781;28;20215;-79
2021/12/05 13:29:23;;;;;;;8.73;6.23;;;6.40;99.90;;;;;;5070647;28;20212;-80
2021/12/05 13:32:06;;;;;;;12.97;6.60;;;6.40;99.90;;;;;;5076001;28;20253;-80
2021/12/05 13:34:43;;;;;;;10.87;6.93;;;6.30;99.90;;;;;;5070502;28;20209;-81
2021/12/05 13:37:09;;;;;;;10.67;6.53;;;6.30;99.90;;;;;;5070620;28;20199;-80
2021/12/05 13:39:47;;;;;;;10.33;6.77;;;6.30;99.90;;;;;;5082415;28;20212;-79
2021/12/05 13:42:33;;;;;;;7.80;6.07;;;6.20;99.90;;;;;;5079786;28;20210;-80
2021/12/05 13:45:04;;;;;;;11.90;6.80;;;6.20;99.90;;;;;;5082184;28;20644;-81
2021/12/05 13:47:40;;;;;;;10.77;6.80;;;6.10;99.90;;;;;;5066133;28;20217;-80
2021/12/05 13:50:21;;;;;;;9.23;6.23;;;6.20;99.90;;;;;;5076964;28;20285;-80
2021/12/05 13:53:09;;;;;;;8.80;6.57;;;6.20;99.90;;;;;;5065766;28;20277;-80
2021/12/05 13:55:39;;;;;;;11.17;5.97;;;6.20;99.90;;;;;;5068518;28;20291;-79
2021/12/05 13:58:20;;;;;;;10.80;6.43;;;6.20;99.90;;;;;;5075510;28;20208;-79
2021/12/05 14:01:15;;;;;;;13.23;6.43;;;6.20;99.90;;;;;;5070477;28;20200;-80
2021/12/05 14:03:59;;;;;;;10.93;6.77;;;6.10;99.90;;;;;;5068458;28;20281;-80
2021/12/05 14:06:49;;;;;;;10.63;6.80;;;6.20;99.90;;;;;;5070317;28;20208;-79
2021/12/05 14:09:39;;;;;;;12.17;7.60;;;6.10;99.90;;;;;;5067757;28;20269;-79
2021/12/05 14:12:13;;;;;;;14.93;8.63;;;6.20;99.90;;;;;;5066713;28;20226;-79
2021/12/05 14:14:48;;;;;;;12.93;7.63;;;6.10;99.90;;;;;;5071535;28;20202;-80
2021/12/05 14:17:22;;;;;;;13.07;7.23;;;6.00;99.90;;;;;;5068139;28;20224;-79
2021/12/05 14:19:57;;;;;;;12.27;7.40;;;6.00;99.90;;;;;;5068202;28;20232;-80
2021/12/05 14:22:33;;;;;;;9.20;6.10;;;6.00;99.90;;;;;;5062746;28;20200;-79
2021/12/05 14:25:09;;;;;;;10.87;5.87;;;5.90;99.90;;;;;;5063249;28;20218;-79
2021/12/05 14:27:39;;;;;;;9.07;5.80;;;5.90;99.90;;;;;;5077116;28;20200;-80
2021/12/05 14:30:11;;;;;;;9.67;5.63;;;5.90;99.90;;;;;;5072232;28;20235;-81
2021/12/05 14:32:43;;;;;;;9.73;5.73;;;5.90;99.90;;;;;;5069257;28;20684;-80
2021/12/05 14:35:16;;;;;;;8.43;5.27;;;5.90;99.90;;;;;;5086450;28;20238;-80
2021/12/05 14:37:46;;;;;;;8.03;5.30;;;5.90;99.90;;;;;;5077383;28;20634;-82
2021/12/05 14:40:30;;;;;;;8.10;4.90;;;5.90;99.90;;;;;;5081108;28;20617;-79
2021/12/05 14:43:03;;;;;;;7.33;4.73;;;5.90;99.90;;;;;;5081569;28;20232;-79
2021/12/05 14:45:36;;;;;;;7.77;5.23;;;5.90;99.90;;;;;;5061738;28;20209;-80
2021/12/05 14:48:12;;;;;;;9.43;5.90;;;5.80;99.90;;;;;;5068694;28;20262;-79
2021/12/05 14:50:51;;;;;;;9.67;6.30;;;5.80;99.90;;;;;;5096626;28;20220;-79
2021/12/05 14:53:20;;;;;;;7.47;5.50;;;5.80;99.90;;;;;;5097127;28;20202;-79
2021/12/05 14:55:48;;;;;;;9.83;6.83;;;5.70;99.90;;;;;;5093941;28;20203;-79
2021/12/05 14:58:16;;;;;;;10.67;6.90;;;5.70;99.90;;;;;;5102979;28;20218;-80
2021/12/05 15:00:50;;;;;;;11.20;7.20;;;5.70;99.90;;;;;;5094592;28;20331;-78
2021/12/05 15:03:20;;;;;;;10.27;6.50;;;5.60;99.90;;;;;;5093713;28;20282;-79
2021/12/05 15:05:59;;;;;;;8.97;6.27;;;5.60;99.90;;;;;;5090175;28;20196;-78
2021/12/05 15:08:30;;;;;;;9.70;5.60;;;5.60;99.90;;;;;;5093426;28;20244;-79
2021/12/05 15:11:04;;;;;;;9.90;5.90;;;5.60;99.90;;;;;;5105486;28;20202;-79
2021/12/05 15:13:32;;;;;;;8.60;5.83;;;5.50;99.90;;;;;;5086092;28;20929;-79
2021/12/05 15:16:00;;;;;;;9.50;5.80;;;5.50;99.90;;;;;;5104038;28;20234;-78
2021/12/05 15:18:29;;;;;;;11.03;6.03;;;5.50;99.90;;;;;;5112568;28;20230;-80
2021/12/05 15:20:58;;;;;;;11.10;6.03;;;5.40;99.90;;;;;;5099325;28;20230;-80
2021/12/05 15:23:30;;;;;;;8.70;6.37;;;5.40;99.90;;;;;;5092950;28;20223;-79
2021/12/05 15:25:59;;;;;;;11.60;6.50;;;5.40;99.90;;;;;;5086656;28;20295;-78
2021/12/05 15:28:26;;;;;;;12.80;6.20;;;5.40;99.90;;;;;;5093169;28;20196;-79
2021/12/05 15:30:53;;;;;;;10.43;6.17;;;5.40;99.90;;;;;;5093073;28;20212;-79
2021/12/05 15:33:25;;;;;;;11.83;6.63;;;5.50;99.90;;;;;;5097962;28;20239;-80
2021/12/05 15:35:53;;;;;;;11.73;6.63;;;5.50;99.90;;;;;;5097952;28;20691;-77
2021/12/05 15:38:25;;;;;;;12.73;7.13;;;5.50;99.90;;;;;;5093426;28;20199;-79
2021/12/05 15:40:57;;;;;;;13.47;7.57;;;5.50;99.90;;;;;;5075131;28;20349;-80
2021/12/05 15:43:26;;;;;;;12.17;7.50;;;5.50;99.90;;;;;;5090034;28;20223;-80
2021/12/05 15:45:56;;;;;;;13.43;7.80;;;5.50;99.90;;;;;;5091590;28;20207;-80
2021/12/05 15:48:25;;;;;;;12.97;8.30;;;5.50;99.90;;;;;;5085146;28;20453;-79
2021/12/05 15:50:54;;;;;;;15.67;8.47;;;5.50;99.90;;;;;;5095444;28;20223;-78
2021/12/05 15:53:23;;;;;;;14.73;8.80;;;5.60;99.90;;;;;;5068167;28;20637;-79
2021/12/05 15:55:57;;;;;;;15.00;7.87;;;5.60;99.90;;;;;;5091998;28;20267;-79
2021/12/05 15:58:32;;;;;;;14.87;8.63;;;5.60;99.90;;;;;;5095610;28;20205;-79
2021/12/05 16:01:18;;;;;;;15.53;8.77;;;5.60;99.90;;;;;;5092156;28;20188;-80
2021/12/05 16:04:00;;;;;;;14.63;7.93;;;5.50;99.90;;;;;;5090723;28;20307;-79
2021/12/05 16:06:37;;;;;;;17.43;8.37;;;5.50;99.90;;;;;;5089800;28;20620;-78
2021/12/05 16:09:20;;;;;;;15.60;8.67;;;5.40;99.90;;;;;;5073896;28;20214;-79
2021/12/05 16:11:50;;;;;;;17.17;9.40;;;5.40;99.90;;;;;;5088925;28;20203;-80
2021/12/05 16:14:29;;;;;;;16.53;9.33;;;5.40;99.90;;;;;;5091008;28;20627;-80
2021/12/05 16:16:56;;;;;;;15.17;8.83;;;5.40;99.90;;;;;;5090416;28;20222;-80
2021/12/05 16:19:23;;;;;;;20.10;10.67;;;5.40;99.90;;;;;;5090066;28;20630;-78
2021/12/05 16:21:52;;;;;;;17.80;10.33;;;5.40;99.90;;;;;;5095309;28;20974;-79
2021/12/05 16:24:20;;;;;;;22.90;11.10;;;5.50;99.90;;;;;;5098353;28;20338;-79
2021/12/05 16:26:49;;;;;;;23.90;11.67;;;5.50;99.90;;;;;;5095251;28;20647;-80
2021/12/05 16:29:24;;;;;;;21.70;11.63;;;5.50;99.90;;;;;;5083132;28;20249;-78
2021/12/05 16:31:57;;;;;;;19.43;11.53;;;5.50;99.90;;;;;;5076953;28;20661;-80
2021/12/05 16:34:33;;;;;;;25.23;13.10;;;5.50;99.90;;;;;;5098385;28;20594;-79
2021/12/05 16:37:06;;;;;;;22.03;12.47;;;5.50;99.90;;;;;;5073913;28;20281;-79
2021/12/05 16:39:32;;;;;;;30.37;15.00;;;5.50;99.90;;;;;;5091948;28;20674;-79
2021/12/05 16:42:08;;;;;;;32.43;15.27;;;5.50;99.90;;;;;;5096869;28;20287;-79
2021/12/05 16:44:39;;;;;;;30.27;15.17;;;5.40;99.90;;;;;;5110345;28;20730;-78
2021/12/05 16:47:18;;;;;;;34.70;16.23;;;5.40;99.90;;;;;;5104685;28;20238;-80
2021/12/05 16:49:52;;;;;;;30.13;14.73;;;5.40;99.90;;;;;;5111399;27;20711;-79
2021/12/05 16:52:24;;;;;;;34.63;16.00;;;5.40;99.90;;;;;;5097494;28;20231;-79
2021/12/05 16:55:11;;;;;;;37.00;17.33;;;5.40;99.90;;;;;;5078763;28;20349;-79
2021/12/05 16:57:44;;;;;;;33.83;15.80;;;5.40;99.90;;;;;;5085325;28;20308;-78
2021/12/05 17:00:24;;;;;;;32.40;16.87;;;5.40;99.90;;;;;;5090123;28;20716;-79
2021/12/05 17:02:55;;;;;;;34.33;16.70;;;5.50;99.90;;;;;;5090771;28;20226;-78
2021/12/05 17:05:27;;;;;;;38.83;17.20;;;5.50;99.90;;;;;;5072996;28;20711;-78
2021/12/05 17:08:07;;;;;;;37.10;17.20;;;5.40;99.90;;;;;;5090889;28;20286;-78
2021/12/05 17:10:39;;;;;;;34.70;17.83;;;5.40;99.90;;;;;;5099921;28;20201;-78
2021/12/05 17:13:14;;;;;;;39.77;17.53;;;5.40;99.90;;;;;;5100523;28;20269;-77
2021/12/05 17:15:57;;;;;;;34.87;18.27;;;5.40;99.90;;;;;;5094004;28;20209;-78
2021/12/05 17:18:34;;;;;;;40.50;18.43;;;5.40;99.90;;;;;;5095689;28;20307;-77
2021/12/05 17:21:12;;;;;;;38.40;17.90;;;5.40;99.90;;;;;;5096221;28;20326;-77
2021/12/05 17:23:42;;;;;;;40.73;19.60;;;5.40;99.90;;;;;;5113199;28;20766;-79
2021/12/05 17:26:22;;;;;;;39.97;18.80;;;5.40;99.90;;;;;;5091991;28;20757;-79
2021/12/05 17:29:19;;;;;;;38.20;17.63;;;5.50;99.90;;;;;;5094589;28;20226;-77
2021/12/05 17:32:10;;;;;;;40.70;19.03;;;5.40;99.90;;;;;;5097217;28;20373;-78
2021/12/05 17:34:51;;;;;;;40.27;18.27;;;5.40;99.90;;;;;;5097145;28;20682;-80
2021/12/05 17:37:24;;;;;;;35.57;18.23;;;5.40;99.90;;;;;;5098181;28;20246;-78
2021/12/05 17:39:51;;;;;;;40.27;19.53;;;5.40;99.90;;;;;;5100897;28;20199;-80
2021/12/05 17:42:24;;;;;;;38.73;19.10;;;5.50;99.90;;;;;;5098799;28;20200;-77
2021/12/05 17:44:55;;;;;;;37.73;20.40;;;5.40;99.90;;;;;;5066461;28;20341;-80
2021/12/05 17:47:22;;;;;;;39.70;19.83;;;5.40;99.90;;;;;;5110804;28;20226;-79
2021/12/05 17:49:53;;;;;;;44.47;21.63;;;5.40;99.90;;;;;;5103387;28;20257;-79
2021/12/05 17:52:24;;;;;;;44.50;21.17;;;5.40;99.90;;;;;;5096083;28;20729;-79
2021/12/05 17:55:06;;;;;;;41.73;21.90;;;5.40;99.90;;;;;;5094942;28;20681;-81
2021/12/05 17:57:42;;;;;;;41.97;20.73;;;5.40;99.90;;;;;;5093018;28;20282;-79
2021/12/05 18:00:33;;;;;;;43.17;20.83;;;5.40;99.90;;;;;;5075466;28;20300;-79
2021/12/05 18:03:04;;;;;;;43.20;22.63;;;5.40;99.90;;;;;;5091261;28;20223;-79
2021/12/05 18:05:39;;;;;;;50.03;22.13;;;5.40;99.90;;;;;;5073166;28;20376;-78
2021/12/05 18:08:13;;;;;;;50.80;22.50;;;5.30;99.90;;;;;;5088789;28;20677;-79
2021/12/05 18:10:46;;;;;;;42.57;21.27;;;5.30;99.90;;;;;;5098589;28;20221;-80
2021/12/05 18:13:14;;;;;;;58.45;29.10;;;5.40;99.90;;;;;;5095129;28;20978;-79
2021/12/05 18:16:03;;;;;;;41.80;21.13;;;5.50;99.90;;;;;;5073651;28;20663;-81
2021/12/05 18:18:37;;;;;;;41.53;20.90;;;5.50;99.90;;;;;;5087280;28;20223;-78
2021/12/05 18:21:09;;;;;;;41.73;20.30;;;5.50;99.90;;;;;;5088000;28;20666;-80
2021/12/05 18:23:37;;;;;;;43.73;19.30;;;5.40;99.90;;;;;;5087606;28;20212;-79
2021/12/05 18:26:05;;;;;;;41.03;20.33;;;5.40;99.90;;;;;;5102690;28;20213;-80